Time;durP1;ratioP1;P1;durP2;ratioP2;P2;SDS_P1;SDS_P2;PMS_P1;PMS_P2;Temp;Humidity;BMP_temperature;BMP_pressure;BME280_temperature;BME280_humidity;BME280_pressure;Samples;Min_cycle;Max_cycle;Signal;HPM_P1;HPM_P2
2022/01/03 00:00:46;;;;;;;8.70;1.67;;;10.80;99.90;;;;;;5080506;28;20766;-39
2022/01/03 00:03:14;;;;;;;16.40;1.70;;;10.80;99.90;;;;;;5087609;28;20036;-37
2022/01/03 00:05:40;;;;;;;12.63;2.60;;;10.80;99.90;;;;;;5087979;28;20122;-35
2022/01/03 00:08:06;;;;;;;22.15;1.48;;;10.70;99.90;;;;;;5080514;28;20422;-34
2022/01/03 00:10:34;;;;;;;17.40;2.78;;;10.70;99.90;;;;;;5090372;28;20472;-35
2022/01/03 00:13:00;;;;;;;16.23;1.85;;;10.70;99.90;;;;;;5095116;28;20040;-36
2022/01/03 00:15:26;;;;;;;22.42;1.90;;;10.70;99.90;;;;;;5087325;28;20032;-38
2022/01/03 00:17:53;;;;;;;15.02;1.83;;;10.60;99.90;;;;;;5092112;28;20029;-35
2022/01/03 00:20:20;;;;;;;14.55;1.98;;;10.60;99.90;;;;;;5087854;28;20028;-49
2022/01/03 00:23:04;;;;;;;13.20;3.45;;;10.60;99.90;;;;;;5083604;28;20510;-43
2022/01/03 00:25:30;;;;;;;16.42;2.20;;;10.50;99.90;;;;;;5096716;28;20506;-34
2022/01/03 00:28:14;;;;;;;14.50;3.17;;;10.40;99.90;;;;;;5094800;28;20388;-37
2022/01/03 00:30:41;;;;;;;19.60;3.72;;;10.50;99.90;;;;;;5094563;28;20410;-33
2022/01/03 00:33:07;;;;;;;23.45;2.42;;;10.50;99.90;;;;;;5095842;28;20038;-38
2022/01/03 00:35:38;;;;;;;15.73;3.03;;;10.50;99.90;;;;;;5086370;28;20492;-39
2022/01/03 00:38:07;;;;;;;17.85;1.98;;;10.50;99.90;;;;;;5085500;28;20028;-36
2022/01/03 00:40:33;;;;;;;11.95;1.65;;;10.50;99.90;;;;;;5091492;28;20028;-42
2022/01/03 00:43:00;;;;;;;15.52;3.42;;;10.40;99.90;;;;;;5076070;28;20032;-34
2022/01/03 00:45:25;;;;;;;21.80;3.42;;;10.40;99.90;;;;;;5076102;28;20028;-34
2022/01/03 00:47:53;;;;;;;27.58;2.22;;;10.40;99.90;;;;;;5083766;28;20213;-34
2022/01/03 00:50:21;;;;;;;12.77;2.08;;;10.40;99.90;;;;;;5076556;28;20021;-35
2022/01/03 00:52:47;;;;;;;13.60;2.35;;;10.40;99.90;;;;;;5081955;28;20060;-36
2022/01/03 00:55:13;;;;;;;19.35;2.03;;;10.40;99.90;;;;;;5093552;28;20055;-32
2022/01/03 00:57:48;;;;;;;18.73;2.25;;;10.40;99.90;;;;;;5090707;28;20119;-34
2022/01/03 01:00:14;;;;;;;19.50;1.90;;;10.40;99.90;;;;;;5084438;28;20514;-33
2022/01/03 01:02:49;;;;;;;20.30;2.60;;;10.40;99.90;;;;;;5093274;28;20505;-39
2022/01/03 01:05:15;;;;;;;11.55;2.35;;;10.40;99.90;;;;;;5096295;28;20430;-34
2022/01/03 01:07:41;;;;;;;30.48;3.17;;;10.30;99.90;;;;;;5092840;28;20027;-32
2022/01/03 01:10:08;;;;;;;19.75;2.78;;;10.40;99.90;;;;;;5092129;28;20038;-38
2022/01/03 01:12:36;;;;;;;18.42;3.88;;;10.30;99.90;;;;;;5093863;28;20043;-31
2022/01/03 01:15:02;;;;;;;;;;;10.30;99.90;;;;;;5075993;28;20085;-35
2022/01/03 01:17:27;;;;;;;26.83;2.97;;;10.30;99.90;;;;;;5091842;28;20363;-32
2022/01/03 01:19:56;;;;;;;24.40;3.20;;;10.20;99.90;;;;;;5085917;28;20028;-33
2022/01/03 01:22:21;;;;;;;14.82;2.30;;;10.20;99.90;;;;;;5088530;28;20039;-35
2022/01/03 01:24:59;;;;;;;17.63;3.20;;;10.20;99.90;;;;;;5090994;28;20383;-37
2022/01/03 01:30:11;;;;;;;16.48;2.78;;;10.20;99.90;;;;;;5085064;28;20308;-35
2022/01/03 01:32:42;;;;;;;20.35;2.47;;;10.20;99.90;;;;;;5091198;28;20055;-37
2022/01/03 01:35:09;;;;;;;17.35;2.33;;;10.20;99.90;;;;;;5094592;28;20024;-32
2022/01/03 01:37:38;;;;;;;27.42;2.58;;;10.20;99.90;;;;;;5093422;28;20056;-33
2022/01/03 01:40:04;;;;;;;24.58;3.50;;;10.10;99.90;;;;;;5080564;28;20027;-35
2022/01/03 01:42:31;;;;;;;20.20;2.60;;;10.10;99.90;;;;;;5094418;28;20523;-47
2022/01/03 01:44:59;;;;;;;21.58;2.20;;;10.10;99.90;;;;;;5095497;28;20153;-37
2022/01/03 01:47:26;;;;;;;16.83;2.40;;;10.10;99.90;;;;;;5085984;28;20032;-34
2022/01/03 01:49:54;;;;;;;25.70;2.78;;;10.10;99.90;;;;;;5089869;28;20025;-32
2022/01/03 01:52:24;;;;;;;7.32;0.90;;;10.10;99.90;;;;;;5077923;28;20098;-33
2022/01/03 01:55:09;;;;;;;22.38;2.45;;;10.10;99.90;;;;;;5094973;28;20055;-34
2022/01/03 01:57:53;;;;;;;15.70;2.30;;;10.20;99.90;;;;;;5091939;28;20387;-37
2022/01/03 02:00:19;;;;;;;18.13;2.33;;;10.20;99.90;;;;;;5092650;28;20031;-35
2022/01/03 02:02:46;;;;;;;16.38;3.28;;;10.20;99.90;;;;;;5093203;28;20472;-38
2022/01/03 02:05:25;;;;;;;16.33;3.17;;;10.20;99.90;;;;;;5093951;28;20028;-31
2022/01/03 02:08:08;;;;;;;16.80;1.83;;;10.20;99.90;;;;;;5080527;28;20038;-32
2022/01/03 02:10:50;;;;;;;20.40;2.90;;;10.20;99.90;;;;;;5090089;28;20082;-35
2022/01/03 02:13:22;;;;;;;15.55;2.28;;;10.20;99.90;;;;;;5094689;28;20085;-34
2022/01/03 02:15:57;;;;;;;17.83;2.17;;;10.20;99.90;;;;;;5090916;28;20108;-35
2022/01/03 02:18:24;;;;;;;23.38;2.58;;;10.20;99.90;;;;;;5093905;28;20024;-34
2022/01/03 02:20:50;;;;;;;32.95;5.13;;;10.10;99.90;;;;;;5089261;28;20525;-36
2022/01/03 02:23:15;;;;;;;15.68;2.65;;;10.10;99.90;;;;;;5094506;28;20024;-36
2022/01/03 02:25:41;;;;;;;15.50;2.80;;;10.10;99.90;;;;;;5088284;28;20024;-32
2022/01/03 02:28:06;;;;;;;14.13;2.45;;;10.10;99.90;;;;;;5091461;28;20111;-35
2022/01/03 02:30:34;;;;;;;19.38;3.00;;;10.10;99.90;;;;;;5093175;28;20016;-35
2022/01/03 02:33:00;;;;;;;27.33;3.40;;;10.10;99.90;;;;;;5084423;28;20020;-39
2022/01/03 02:35:26;;;;;;;17.02;2.58;;;10.20;99.90;;;;;;5081951;28;20289;-37
2022/01/03 02:37:53;;;;;;;22.00;2.25;;;10.20;99.90;;;;;;5085748;28;20500;-34
2022/01/03 02:40:19;;;;;;;21.17;2.67;;;10.20;99.90;;;;;;5084406;28;20034;-33
2022/01/03 02:42:46;;;;;;;28.25;3.58;;;10.20;99.90;;;;;;5085496;28;20024;-34
2022/01/03 02:45:15;;;;;;;20.27;2.55;;;10.20;99.90;;;;;;5077082;28;20024;-39
2022/01/03 02:47:47;;;;;;;15.82;1.85;;;10.20;99.90;;;;;;5073848;28;20475;-37
2022/01/03 02:50:15;;;;;;;23.70;2.85;;;10.10;99.90;;;;;;5074489;28;20601;-34
2022/01/03 02:52:41;;;;;;;29.40;3.95;;;10.10;99.90;;;;;;5075962;28;20468;-49
2022/01/03 02:55:09;;;;;;;17.40;3.03;;;10.10;99.90;;;;;;5082352;28;20391;-36
2022/01/03 02:57:41;;;;;;;21.48;3.22;;;10.10;99.90;;;;;;5093712;28;20399;-32
2022/01/03 03:00:12;;;;;;;17.77;2.28;;;10.10;99.90;;;;;;5078517;28;20043;-33
2022/01/03 03:02:38;;;;;;;22.88;2.88;;;10.00;99.90;;;;;;5074263;28;20028;-33
2022/01/03 03:05:06;;;;;;;9.43;2.90;;;10.10;99.90;;;;;;5073763;28;20028;-35
2022/01/03 03:07:32;;;;;;;;;;;10.10;99.90;;;;;;5074601;28;20579;-34
2022/01/03 03:09:58;;;;;;;31.90;4.55;;;10.10;99.90;;;;;;5073487;28;20010;-35
2022/01/03 03:12:25;;;;;;;26.83;2.90;;;10.10;99.90;;;;;;5076753;28;20032;-35
2022/01/03 03:14:51;;;;;;;11.35;1.95;;;10.10;99.90;;;;;;5089254;28;20020;-37
2022/01/03 03:17:18;;;;;;;24.23;2.90;;;10.10;99.90;;;;;;5080493;28;20460;-35
2022/01/03 03:19:57;;;;;;;22.00;2.60;;;10.10;99.90;;;;;;5075539;28;20147;-32
2022/01/03 03:22:25;;;;;;;20.55;2.85;;;10.10;99.90;;;;;;5076014;28;20023;-34
2022/01/03 03:24:51;;;;;;;19.88;3.20;;;10.10;99.90;;;;;;5086105;28;20020;-39
2022/01/03 03:27:17;;;;;;;31.00;3.50;;;10.10;99.90;;;;;;5090713;28;20084;-37
2022/01/03 03:29:53;;;;;;;23.98;3.35;;;10.20;99.90;;;;;;5074429;28;20043;-34
2022/01/03 03:32:38;;;;;;;27.95;3.58;;;10.10;99.90;;;;;;5090297;28;20024;-34
2022/01/03 03:35:04;;;;;;;24.30;3.92;;;10.10;99.90;;;;;;5083633;28;20025;-33
2022/01/03 03:37:30;;;;;;;17.45;2.70;;;10.20;99.90;;;;;;5077195;28;20030;-43
2022/01/03 03:39:55;;;;;;;18.08;2.45;;;10.10;99.90;;;;;;5079471;28;20029;-35
2022/01/03 03:42:21;;;;;;;20.13;2.50;;;10.10;99.90;;;;;;5072879;28;20032;-41
2022/01/03 03:44:46;;;;;;;19.58;3.13;;;10.10;99.90;;;;;;5089567;28;20534;-31
2022/01/03 03:47:12;;;;;;;20.83;2.58;;;10.10;99.90;;;;;;5092383;28;20020;-36
2022/01/03 03:49:38;;;;;;;27.08;3.88;;;10.10;99.90;;;;;;5073613;28;20063;-41
2022/01/03 03:52:04;;;;;;;32.13;5.78;;;10.00;99.90;;;;;;5084619;28;20064;-35
2022/01/03 03:54:31;;;;;;;29.65;4.22;;;10.00;99.90;;;;;;5107579;28;20110;-39
2022/01/03 03:56:58;;;;;;;24.00;3.53;;;10.00;99.90;;;;;;5084269;28;20567;-35
2022/01/03 03:59:25;;;;;;;23.98;3.58;;;10.10;99.90;;;;;;5072860;28;20319;-34
2022/01/03 04:01:52;;;;;;;32.13;3.42;;;10.10;99.90;;;;;;5085224;28;20024;-34
2022/01/03 04:04:18;;;;;;;27.65;3.58;;;10.10;99.90;;;;;;5084839;28;20028;-43
2022/01/03 04:06:44;;;;;;;32.08;3.50;;;10.20;99.90;;;;;;5091853;28;20032;-38
2022/01/03 04:09:10;;;;;;;26.90;3.47;;;10.20;99.90;;;;;;5089081;28;20116;-48
2022/01/03 04:11:35;;;;;;;30.20;3.10;;;10.20;99.90;;;;;;5090041;28;20031;-73
2022/01/03 04:14:01;;;;;;;21.70;3.90;;;10.20;99.90;;;;;;5100206;28;20038;-39
2022/01/03 04:16:27;;;;;;;37.25;3.92;;;10.20;99.90;;;;;;5085571;28;20028;-35
2022/01/03 04:18:53;;;;;;;28.52;4.03;;;10.20;99.90;;;;;;5093477;28;20028;-36
2022/01/03 04:21:19;;;;;;;23.70;3.85;;;10.30;99.90;;;;;;5072724;28;20089;-35
2022/01/03 04:23:45;;;;;;;33.40;3.35;;;10.20;99.90;;;;;;5077231;28;20536;-33
2022/01/03 04:26:11;;;;;;;20.67;4.03;;;10.20;99.90;;;;;;5076167;28;20021;-35
2022/01/03 04:28:38;;;;;;;33.35;4.55;;;10.20;99.90;;;;;;5088204;28;20467;-40
2022/01/03 04:31:03;;;;;;;27.02;3.15;;;10.20;99.90;;;;;;5091079;28;20024;-35
2022/01/03 04:33:29;;;;;;;19.90;2.80;;;10.20;99.90;;;;;;5080568;28;20028;-36
2022/01/03 04:35:55;;;;;;;33.33;4.13;;;10.30;99.90;;;;;;5088987;28;20024;-36
2022/01/03 04:38:20;;;;;;;36.30;5.28;;;10.30;99.90;;;;;;5084614;28;20028;-35
2022/01/03 04:40:46;;;;;;;44.00;4.95;;;10.30;99.90;;;;;;5081062;28;20429;-39
2022/01/03 04:43:12;;;;;;;30.45;4.90;;;10.40;99.90;;;;;;5096876;28;20050;-36
2022/01/03 04:45:37;;;;;;;26.45;3.83;;;10.40;99.90;;;;;;5083009;28;20016;-32
2022/01/03 04:48:03;;;;;;;28.77;3.63;;;10.40;99.90;;;;;;5091407;28;20525;-38
2022/01/03 04:50:29;;;;;;;26.23;3.83;;;10.50;99.90;;;;;;5092126;28;20060;-43
2022/01/03 04:52:55;;;;;;;25.73;3.53;;;10.40;99.90;;;;;;5091126;28;20472;-35
2022/01/03 04:55:20;;;;;;;35.17;4.38;;;10.40;99.90;;;;;;5089052;28;20383;-34
2022/01/03 04:57:46;;;;;;;34.83;4.40;;;10.40;99.90;;;;;;5095591;28;20041;-36
2022/01/03 05:00:13;;;;;;;26.67;3.45;;;10.50;99.90;;;;;;5079548;28;20023;-34
2022/01/03 05:02:38;;;;;;;28.90;3.55;;;10.50;99.90;;;;;;5100793;28;20379;-32
2022/01/03 05:05:06;;;;;;;29.15;4.60;;;10.50;99.90;;;;;;5075670;28;20028;-36
2022/01/03 05:07:32;;;;;;;38.63;4.85;;;10.50;99.90;;;;;;5075972;28;20052;-35
2022/01/03 05:09:57;;;;;;;32.03;3.47;;;10.50;99.90;;;;;;5077482;28;20032;-34
2022/01/03 05:12:23;;;;;;;28.15;4.93;;;10.60;99.90;;;;;;5116239;28;20393;-36
2022/01/03 05:14:48;;;;;;;26.38;3.35;;;10.60;99.90;;;;;;5081801;28;20036;-34
2022/01/03 05:17:14;;;;;;;31.65;3.72;;;10.60;99.90;;;;;;5110620;28;20042;-39
2022/01/03 05:19:40;;;;;;;47.55;6.53;;;10.60;99.90;;;;;;5099248;28;20483;-39
2022/01/03 05:22:06;;;;;;;24.25;3.78;;;10.50;99.90;;;;;;5094884;28;20399;-33
2022/01/03 05:24:34;;;;;;;36.13;4.97;;;10.60;99.90;;;;;;5093770;28;20111;-33
2022/01/03 05:27:03;;;;;;;35.08;4.18;;;10.60;99.90;;;;;;5076704;28;20392;-34
2022/01/03 05:29:29;;;;;;;23.25;3.97;;;10.60;99.90;;;;;;5075288;28;20043;-38
2022/01/03 05:31:55;;;;;;;21.63;3.55;;;10.60;99.90;;;;;;5107016;28;20084;-35
2022/01/03 05:34:21;;;;;;;22.58;3.60;;;10.50;99.90;;;;;;5082270;28;20465;-36
2022/01/03 05:36:46;;;;;;;27.70;3.10;;;10.60;99.90;;;;;;5083143;28;20060;-32
2022/01/03 05:39:12;;;;;;;44.10;7.30;;;10.60;99.90;;;;;;5090146;28;20503;-38
2022/01/03 05:41:38;;;;;;;35.47;4.47;;;10.50;99.90;;;;;;5083726;28;20028;-35
2022/01/03 05:44:04;;;;;;;30.90;3.70;;;10.60;99.90;;;;;;5074905;28;20029;-33
2022/01/03 05:46:30;;;;;;;36.13;4.97;;;10.60;99.90;;;;;;5074911;28;20029;-33
2022/01/03 05:48:55;;;;;;;24.25;4.20;;;10.60;99.90;;;;;;5084632;28;20102;-36
2022/01/03 05:51:21;;;;;;;31.98;4.57;;;10.60;99.90;;;;;;5085297;28;20029;-38
2022/01/03 05:53:47;;;;;;;35.35;5.70;;;10.60;99.90;;;;;;5075088;28;20020;-34
2022/01/03 05:56:13;;;;;;;29.92;3.85;;;10.60;99.90;;;;;;5081407;28;20035;-38
2022/01/03 05:58:38;;;;;;;30.88;3.78;;;10.70;99.90;;;;;;5087069;28;20101;-39
2022/01/03 06:01:04;;;;;;;27.88;4.03;;;10.70;99.90;;;;;;5090252;28;20024;-39
2022/01/03 06:03:35;;;;;;;28.27;4.07;;;10.70;99.90;;;;;;5074597;28;20062;-37
2022/01/03 06:08:27;;;;;;;27.42;4.07;;;10.70;99.90;;;;;;5087280;28;20029;-37
2022/01/03 06:10:53;;;;;;;23.92;3.22;;;10.70;99.90;;;;;;5074263;28;20115;-35
2022/01/03 06:13:19;;;;;;;27.92;4.07;;;10.70;99.90;;;;;;5074451;28;20545;-36
2022/01/03 06:15:45;;;;;;;23.13;4.05;;;10.70;99.90;;;;;;5093050;28;20135;-37
2022/01/03 06:18:15;;;;;;;28.67;4.22;;;10.70;99.90;;;;;;5093147;28;20036;-33
2022/01/03 06:20:43;;;;;;;27.63;3.53;;;10.70;99.90;;;;;;5097045;28;20487;-40
2022/01/03 06:23:10;;;;;;;31.23;4.00;;;10.60;99.90;;;;;;5093967;28;20032;-35
2022/01/03 06:25:37;;;;;;;25.65;2.90;;;10.60;99.90;;;;;;5094626;28;20043;-37
2022/01/03 06:28:07;;;;;;;26.63;4.32;;;10.60;99.90;;;;;;5091944;28;20482;-35
2022/01/03 06:30:41;;;;;;;27.17;3.33;;;10.60;99.90;;;;;;5074201;28;20039;-36
2022/01/03 06:33:08;;;;;;;19.80;2.28;;;10.60;99.90;;;;;;5074215;28;20529;-37
2022/01/03 06:35:34;;;;;;;24.60;3.47;;;10.60;99.90;;;;;;5085093;28;20375;-38
2022/01/03 06:38:02;;;;;;;22.25;3.55;;;10.60;99.90;;;;;;5079405;28;20032;-37
2022/01/03 06:40:27;;;;;;;29.83;3.15;;;10.60;99.90;;;;;;5094738;28;20052;-35
2022/01/03 06:42:53;;;;;;;20.42;3.25;;;10.60;99.90;;;;;;5093617;28;20052;-35
2022/01/03 06:45:19;;;;;;;22.40;3.10;;;10.60;99.90;;;;;;5090158;28;20032;-38
2022/01/03 06:47:45;;;;;;;25.33;3.22;;;10.60;99.90;;;;;;5078957;28;20507;-32
2022/01/03 06:50:11;;;;;;;21.85;3.40;;;10.60;99.90;;;;;;5105880;28;20483;-32
2022/01/03 06:52:37;;;;;;;24.95;3.97;;;10.60;99.90;;;;;;5095841;28;20046;-34
2022/01/03 06:55:05;;;;;;;23.33;2.95;;;10.60;99.90;;;;;;5085947;28;20042;-36
2022/01/03 06:57:31;;;;;;;33.63;3.28;;;10.60;99.90;;;;;;5092197;28;20040;-38
2022/01/03 06:59:57;;;;;;;21.35;2.20;;;10.70;99.90;;;;;;5076340;28;20383;-35
2022/01/03 07:02:23;;;;;;;18.05;2.58;;;10.70;99.90;;;;;;5094586;28;20020;-39
2022/01/03 07:04:49;;;;;;;21.98;3.30;;;10.60;99.90;;;;;;5075114;28;20020;-41
2022/01/03 07:07:15;;;;;;;22.50;2.72;;;10.60;99.90;;;;;;5090930;28;20101;-47
2022/01/03 07:09:40;;;;;;;30.02;2.47;;;10.70;99.90;;;;;;5098789;28;20029;-36
2022/01/03 07:12:07;;;;;;;19.75;2.92;;;10.70;99.90;;;;;;5073646;28;20112;-36
2022/01/03 07:19:58;;;;;;;24.50;2.83;;;10.60;99.90;;;;;;5087590;28;20067;-33
2022/01/03 07:22:25;;;;;;;32.63;2.70;;;10.60;99.90;;;;;;5080221;28;20035;-36
2022/01/03 07:24:52;;;;;;;19.85;3.08;;;10.60;99.90;;;;;;5084165;28;20506;-37
2022/01/03 07:27:17;;;;;;;22.25;3.70;;;10.60;99.90;;;;;;5093137;28;20032;-40
2022/01/03 07:29:43;;;;;;;19.92;3.33;;;10.60;99.90;;;;;;5074922;28;20032;-38
2022/01/03 07:32:09;;;;;;;19.98;2.53;;;10.60;99.90;;;;;;5073682;28;20072;-37
2022/01/03 07:34:35;;;;;;;19.25;2.30;;;10.60;99.90;;;;;;5088501;28;20028;-35
2022/01/03 07:37:01;;;;;;;30.15;3.80;;;10.60;99.90;;;;;;5077537;28;20495;-34
2022/01/03 07:39:30;;;;;;;14.18;2.67;;;10.50;99.90;;;;;;5077680;28;20027;-36
2022/01/03 07:41:57;;;;;;;25.45;4.03;;;10.60;99.90;;;;;;5089680;28;20029;-38
2022/01/03 07:44:22;;;;;;;24.40;3.65;;;10.50;99.90;;;;;;5087157;28;20515;-36
2022/01/03 07:46:49;;;;;;;25.23;2.78;;;10.40;99.90;;;;;;5092096;28;20109;-38
2022/01/03 07:49:15;;;;;;;14.55;2.88;;;10.40;99.90;;;;;;5104732;28;20494;-39
2022/01/03 07:51:41;;;;;;;28.92;3.67;;;10.50;99.90;;;;;;5092229;28;20066;-35
2022/01/03 07:54:06;;;;;;;29.92;3.53;;;10.50;99.90;;;;;;5092233;28;20057;-38
2022/01/03 07:56:33;;;;;;;32.92;3.28;;;10.50;99.90;;;;;;5092559;28;20035;-35
2022/01/03 07:58:58;;;;;;;36.17;3.58;;;10.50;99.90;;;;;;5087660;28;20483;-33
2022/01/03 08:01:24;;;;;;;17.92;2.70;;;10.50;99.90;;;;;;5094823;28;20070;-35
2022/01/03 08:03:50;;;;;;;25.98;3.15;;;10.50;99.90;;;;;;5089188;28;20532;-40
2022/01/03 08:06:16;;;;;;;24.63;2.70;;;10.50;99.90;;;;;;5082798;28;20029;-45
2022/01/03 08:08:41;;;;;;;16.58;3.08;;;10.50;99.90;;;;;;5083446;28;20017;-36
2022/01/03 08:11:07;;;;;;;26.67;3.70;;;10.50;99.90;;;;;;5072489;28;20527;-38
2022/01/03 08:13:32;;;;;;;17.50;3.25;;;10.50;99.90;;;;;;5079733;28;20028;-35
2022/01/03 08:15:58;;;;;;;23.60;2.85;;;10.50;99.90;;;;;;5099803;28;20556;-49
2022/01/03 08:18:24;;;;;;;24.90;3.33;;;10.70;99.90;;;;;;5078592;28;20107;-35
2022/01/03 08:20:52;;;;;;;25.23;3.10;;;10.70;99.90;;;;;;5083715;28;20047;-39
2022/01/03 08:23:18;;;;;;;14.15;2.50;;;10.70;99.90;;;;;;5087027;28;20515;-40
2022/01/03 08:25:44;;;;;;;29.35;4.82;;;10.70;99.90;;;;;;5072436;28;20101;-36
2022/01/03 08:28:10;;;;;;;32.30;3.92;;;10.60;99.90;;;;;;5072173;28;20438;-39
2022/01/03 08:30:36;;;;;;;20.52;3.38;;;10.60;99.90;;;;;;5074990;28;20028;-38
2022/01/03 08:33:03;;;;;;;20.15;3.80;;;10.60;99.90;;;;;;5089255;28;20021;-37
2022/01/03 08:35:30;;;;;;;35.47;5.35;;;10.70;99.90;;;;;;5076168;28;20027;-34
2022/01/03 08:37:57;;;;;;;23.50;3.42;;;10.60;99.90;;;;;;5076003;28;20025;-36
2022/01/03 08:40:23;;;;;;;23.48;4.20;;;10.60;99.90;;;;;;5077243;28;20384;-38
2022/01/03 08:42:51;;;;;;;21.80;2.92;;;10.70;99.90;;;;;;5076120;28;20032;-35
2022/01/03 08:45:18;;;;;;;13.32;2.80;;;10.60;99.90;;;;;;5076243;28;20400;-36
2022/01/03 08:47:43;;;;;;;14.73;3.57;;;10.60;99.90;;;;;;5076274;28;20075;-36
2022/01/03 08:50:10;;;;;;;17.38;2.88;;;10.60;99.90;;;;;;5080044;28;20052;-36
2022/01/03 08:52:36;;;;;;;19.25;2.38;;;10.60;99.90;;;;;;5087227;28;20024;-45
2022/01/03 08:55:21;;;;;;;24.63;4.18;;;10.60;99.90;;;;;;5082571;28;20568;-36
2022/01/03 08:57:51;;;;;;;33.85;3.55;;;10.60;99.90;;;;;;5088285;28;20503;-45
2022/01/03 09:00:18;;;;;;;28.55;3.60;;;10.60;99.90;;;;;;5082222;28;20521;-33
2022/01/03 09:02:45;;;;;;;30.08;3.13;;;10.60;99.90;;;;;;5080562;28;20494;-34
2022/01/03 09:05:11;;;;;;;26.50;3.38;;;10.70;99.90;;;;;;5090698;28;20488;-33
2022/01/03 09:07:36;;;;;;;34.55;3.63;;;10.60;99.90;;;;;;5093773;28;20305;-34
2022/01/03 09:10:04;;;;;;;25.02;3.92;;;10.60;99.90;;;;;;5095586;28;20391;-36
2022/01/03 09:12:29;;;;;;;12.85;2.33;;;10.60;99.90;;;;;;5095848;28;20024;-38
2022/01/03 09:14:55;;;;;;;24.77;2.55;;;10.60;99.90;;;;;;5085480;28;20038;-39
2022/01/03 09:17:21;;;;;;;26.67;3.22;;;10.60;99.90;;;;;;5095366;28;20040;-39
2022/01/03 09:19:46;;;;;;;19.00;3.25;;;10.60;99.90;;;;;;5093843;28;20545;-38
2022/01/03 09:22:17;;;;;;;37.40;3.65;;;10.60;99.90;;;;;;5094587;28;20024;-34
2022/01/03 09:24:52;;;;;;;23.13;3.60;;;10.50;99.90;;;;;;5095440;28;20020;-39
2022/01/03 09:30:04;;;;;;;29.38;3.88;;;10.50;99.90;;;;;;5095672;28;20027;-38
2022/01/03 09:32:30;;;;;;;31.30;3.13;;;10.50;99.90;;;;;;5087234;28;20466;-39
2022/01/03 09:34:57;;;;;;;14.07;3.10;;;10.50;99.90;;;;;;5090946;28;20062;-39
2022/01/03 09:37:23;;;;;;;18.05;3.25;;;10.50;99.90;;;;;;5092370;28;20498;-39
2022/01/03 09:39:50;;;;;;;30.25;3.65;;;10.40;99.90;;;;;;5093779;28;20031;-36
2022/01/03 09:42:21;;;;;;;28.52;3.88;;;10.40;99.90;;;;;;5086612;28;20020;-40
2022/01/03 09:44:50;;;;;;;28.08;4.32;;;10.40;99.90;;;;;;5088129;28;20494;-35
2022/01/03 09:47:16;;;;;;;;;;;10.40;99.90;;;;;;5100459;28;20061;-36
2022/01/03 09:49:43;;;;;;;27.10;3.17;;;10.30;99.90;;;;;;5084124;28;19916;-38
2022/01/03 09:52:09;;;;;;;17.50;3.00;;;10.30;99.90;;;;;;5076229;28;20024;-34
2022/01/03 09:54:36;;;;;;;23.30;3.60;;;10.40;99.90;;;;;;5077962;28;20043;-39
2022/01/03 09:57:04;;;;;;;30.00;4.53;;;10.40;99.90;;;;;;5074516;28;20142;-44
2022/01/03 09:59:30;;;;;;;25.83;3.13;;;10.40;99.90;;;;;;5087442;28;20043;-36
2022/01/03 10:01:56;;;;;;;19.70;3.67;;;10.40;99.90;;;;;;5082944;28;20054;-36
2022/01/03 10:04:23;;;;;;;14.23;2.47;;;10.40;99.90;;;;;;5091878;28;20020;-32
2022/01/03 10:06:49;;;;;;;22.77;2.78;;;10.60;99.90;;;;;;5078984;28;20042;-39
2022/01/03 10:09:15;;;;;;;24.88;3.22;;;10.50;99.90;;;;;;5085764;28;20053;-35
2022/01/03 10:11:41;;;;;;;20.05;2.70;;;10.60;99.90;;;;;;5105961;28;20058;-34
2022/01/03 10:14:06;;;;;;;14.80;2.15;;;10.50;99.90;;;;;;5098023;28;20060;-34
2022/01/03 10:16:32;;;;;;;21.98;3.63;;;10.50;99.90;;;;;;5094359;28;20107;-38
2022/01/03 10:18:58;;;;;;;13.85;3.00;;;10.60;99.90;;;;;;5094262;28;20028;-39
2022/01/03 10:21:32;;;;;;;25.90;3.67;;;10.60;99.90;;;;;;5094390;28;20024;-32
2022/01/03 10:23:58;;;;;;;14.93;2.20;;;10.60;99.90;;;;;;5082844;28;20527;-35
2022/01/03 10:26:24;;;;;;;24.45;4.35;;;10.70;99.90;;;;;;5094420;28;20102;-32
2022/01/03 10:28:51;;;;;;;23.33;3.15;;;10.70;99.90;;;;;;5093393;28;20544;-46
2022/01/03 10:31:19;;;;;;;20.67;3.00;;;10.80;99.90;;;;;;5094463;28;20737;-38
2022/01/03 10:33:46;;;;;;;21.98;2.55;;;10.90;99.90;;;;;;5091644;28;20796;-43
2022/01/03 10:36:28;;;;;;;28.17;2.53;;;11.00;99.90;;;;;;5093432;28;20464;-38
2022/01/03 10:38:54;;;;;;;28.35;2.85;;;11.00;99.90;;;;;;5093743;28;20499;-33
2022/01/03 10:41:23;;;;;;;19.50;2.78;;;11.10;99.90;;;;;;5095930;28;20054;-38
2022/01/03 10:43:57;;;;;;;26.45;3.67;;;11.10;99.90;;;;;;5076181;28;20060;-39
2022/01/03 10:46:24;;;;;;;22.67;3.70;;;11.10;99.90;;;;;;5086080;28;20519;-37
2022/01/03 10:48:51;;;;;;;17.75;3.42;;;11.10;99.90;;;;;;5090856;28;20056;-33
2022/01/03 10:51:26;;;;;;;24.80;2.88;;;11.10;99.90;;;;;;5092650;28;20464;-43
2022/01/03 10:54:12;;;;;;;15.80;3.25;;;11.00;99.90;;;;;;5084703;28;20051;-35
2022/01/03 10:56:40;;;;;;;26.70;2.63;;;11.10;99.90;;;;;;5077250;28;20047;-37
2022/01/03 10:59:11;;;;;;;22.65;2.85;;;11.20;99.90;;;;;;5090651;28;20488;-39
2022/01/03 11:01:37;;;;;;;34.33;3.70;;;11.40;99.90;;;;;;5080454;28;20072;-36
2022/01/03 11:04:04;;;;;;;28.98;3.47;;;11.50;99.90;;;;;;5086062;28;20520;-38
2022/01/03 11:11:52;;;;;;;22.10;2.97;;;11.80;99.90;;;;;;5090251;28;20515;-37
2022/01/03 11:14:42;;;;;;;16.65;2.40;;;11.70;99.90;;;;;;5092310;28;20107;-39
2022/01/03 11:17:28;;;;;;;23.73;3.30;;;11.70;99.90;;;;;;5089900;28;20023;-35
2022/01/03 11:19:57;;;;;;;24.95;3.90;;;11.60;99.90;;;;;;5083783;28;20472;-39
2022/01/03 11:22:43;;;;;;;19.38;3.28;;;11.70;99.90;;;;;;5088734;28;20020;-40
2022/01/03 11:25:10;;;;;;;22.48;3.78;;;11.70;99.90;;;;;;5090021;28;20115;-36
2022/01/03 11:27:39;;;;;;;15.80;3.10;;;11.70;99.90;;;;;;5090859;28;20107;-38
2022/01/03 11:30:10;;;;;;;24.75;3.00;;;11.60;99.90;;;;;;5087471;28;20472;-34
2022/01/03 11:32:39;;;;;;;25.48;4.00;;;11.60;99.90;;;;;;5090652;28;20375;-38
2022/01/03 11:35:05;;;;;;;17.38;2.80;;;11.50;99.90;;;;;;5091332;28;20170;-36
2022/01/03 11:37:33;;;;;;;28.65;3.45;;;11.60;99.90;;;;;;5087542;28;20028;-41
2022/01/03 11:40:00;;;;;;;;;;;11.60;99.90;;;;;;5091254;28;20085;-38
2022/01/03 11:42:26;;;;;;;20.90;3.15;;;11.70;99.90;;;;;;5089650;28;19994;-34
2022/01/03 11:44:52;;;;;;;20.30;3.60;;;11.60;99.90;;;;;;5087313;28;20074;-37
2022/01/03 11:47:19;;;;;;;20.40;3.83;;;11.50;99.90;;;;;;5089789;28;20458;-36
2022/01/03 11:49:45;;;;;;;18.38;2.20;;;11.40;99.90;;;;;;5089842;28;20460;-47
2022/01/03 11:52:15;;;;;;;17.20;2.53;;;11.30;99.90;;;;;;5088511;28;20039;-35
2022/01/03 11:54:42;;;;;;;24.75;2.67;;;11.20;99.90;;;;;;5076649;28;20043;-43
2022/01/03 11:57:43;;;;;;;24.92;4.05;;;11.20;99.90;;;;;;5088990;28;20336;-32
2022/01/03 12:05:50;;;;;;;13.70;2.47;;;11.10;99.90;;;;;;5081912;28;20529;-51
2022/01/03 12:08:30;;;;;;;23.87;2.30;;;11.10;99.90;;;;;;5084151;28;20472;-40
2022/01/03 12:11:00;;;;;;;20.45;4.13;;;11.10;99.90;;;;;;5083921;28;20386;-36
2022/01/03 12:14:05;;;;;;;31.55;3.88;;;11.10;99.90;;;;;;5079989;28;20023;-38
2022/01/03 12:16:47;;;;;;;23.42;2.80;;;11.10;99.90;;;;;;5061161;28;20555;-40
2022/01/03 12:19:35;;;;;;;21.42;3.03;;;11.10;99.90;;;;;;5091273;28;20048;-39
2022/01/03 12:22:12;;;;;;;22.02;4.10;;;11.20;99.90;;;;;;5081004;28;20057;-41
2022/01/03 12:24:40;;;;;;;21.50;4.00;;;11.30;99.90;;;;;;5081410;28;20154;-36
2022/01/03 12:27:16;;;;;;;18.67;2.72;;;11.40;99.90;;;;;;5082854;28;20560;-38
2022/01/03 12:29:54;;;;;;;16.25;2.33;;;11.50;99.90;;;;;;5081926;28;20044;-40
2022/01/03 12:32:26;;;;;;;23.70;2.90;;;11.60;99.90;;;;;;5081341;28;20028;-39
2022/01/03 12:35:16;;;;;;;20.10;2.55;;;11.50;99.90;;;;;;5084191;28;20063;-42
2022/01/03 12:38:05;;;;;;;19.40;3.10;;;11.60;99.90;;;;;;5080095;28;20043;-32
2022/01/03 12:40:36;;;;;;;20.88;2.50;;;11.60;99.90;;;;;;5074127;28;20045;-36
2022/01/03 12:43:06;;;;;;;23.20;3.97;;;11.70;99.90;;;;;;5090468;28;20096;-36
2022/01/03 12:45:32;;;;;;;20.85;3.03;;;11.80;99.90;;;;;;5077480;28;20468;-32
2022/01/03 12:48:14;;;;;;;12.60;1.92;;;11.80;99.90;;;;;;5072190;28;20039;-37
2022/01/03 12:51:10;;;;;;;14.60;2.78;;;11.70;99.90;;;;;;5088222;28;20515;-39
2022/01/03 12:53:39;;;;;;;22.33;2.85;;;11.60;99.90;;;;;;5083776;28;20492;-34
2022/01/03 12:56:08;;;;;;;18.45;2.58;;;11.50;99.90;;;;;;5075550;28;20024;-40
2022/01/03 12:58:33;;;;;;;14.25;1.90;;;11.50;99.90;;;;;;5081744;28;20503;-37
2022/01/03 13:01:21;;;;;;;15.70;2.42;;;11.50;99.90;;;;;;5088900;28;20077;-33
2022/01/03 13:03:56;;;;;;;11.68;2.15;;;11.40;99.90;;;;;;5072951;28;20016;-38
2022/01/03 13:06:25;;;;;;;22.23;2.30;;;11.30;99.90;;;;;;5072161;28;20029;-33
2022/01/03 13:08:56;;;;;;;19.60;2.50;;;11.30;99.90;;;;;;5077366;28;20039;-38